sensor_id;sensor_type;location;lat;lon;timestamp;P1;durP1;ratioP1;P2;durP2;ratioP2
22634;SDS011;11484;50.858;4.384;2023-09-08T00:01:29;9.73;;;6.97;;
22634;SDS011;11484;50.858;4.384;2023-09-08T00:03:56;8.25;;;6.20;;
22634;SDS011;11484;50.858;4.384;2023-09-08T00:06:21;8.80;;;6.15;;
22634;SDS011;11484;50.858;4.384;2023-09-08T00:08:47;8.15;;;6.05;;
22634;SDS011;11484;50.858;4.384;2023-09-08T00:11:12;7.53;;;5.95;;
22634;SDS011;11484;50.858;4.384;2023-09-08T00:13:38;8.38;;;6.55;;
22634;SDS011;11484;50.858;4.384;2023-09-08T00:16:05;8.70;;;6.57;;
22634;SDS011;11484;50.858;4.384;2023-09-08T00:18:32;10.75;;;6.32;;
22634;SDS011;11484;50.858;4.384;2023-09-08T00:20:58;10.00;;;6.78;;
22634;SDS011;11484;50.858;4.384;2023-09-08T00:23:23;10.50;;;7.70;;
22634;SDS011;11484;50.858;4.384;2023-09-08T00:25:49;12.10;;;8.77;;
22634;SDS011;11484;50.858;4.384;2023-09-08T00:28:15;7.93;;;6.38;;
22634;SDS011;11484;50.858;4.384;2023-09-08T00:30:40;10.75;;;7.70;;
22634;SDS011;11484;50.858;4.384;2023-09-08T00:33:06;8.25;;;6.15;;
22634;SDS011;11484;50.858;4.384;2023-09-08T00:35:34;8.10;;;6.10;;
22634;SDS011;11484;50.858;4.384;2023-09-08T00:38:00;8.05;;;5.80;;
22634;SDS011;11484;50.858;4.384;2023-09-08T00:40:29;7.15;;;5.80;;
22634;SDS011;11484;50.858;4.384;2023-09-08T00:42:54;8.65;;;6.53;;
22634;SDS011;11484;50.858;4.384;2023-09-08T00:45:20;8.07;;;6.30;;
22634;SDS011;11484;50.858;4.384;2023-09-08T00:47:46;7.97;;;6.10;;
22634;SDS011;11484;50.858;4.384;2023-09-08T00:50:11;7.03;;;6.13;;
22634;SDS011;11484;50.858;4.384;2023-09-08T00:52:37;6.88;;;5.80;;
22634;SDS011;11484;50.858;4.384;2023-09-08T00:55:03;6.32;;;5.45;;
22634;SDS011;11484;50.858;4.384;2023-09-08T00:57:29;7.90;;;6.13;;
22634;SDS011;11484;50.858;4.384;2023-09-08T00:59:55;10.30;;;6.10;;
22634;SDS011;11484;50.858;4.384;2023-09-08T01:02:21;10.25;;;6.55;;
22634;SDS011;11484;50.858;4.384;2023-09-08T01:04:47;7.43;;;5.75;;
22634;SDS011;11484;50.858;4.384;2023-09-08T01:07:13;7.20;;;5.53;;
22634;SDS011;11484;50.858;4.384;2023-09-08T01:09:40;8.77;;;6.30;;
22634;SDS011;11484;50.858;4.384;2023-09-08T01:12:07;11.55;;;6.55;;
22634;SDS011;11484;50.858;4.384;2023-09-08T01:14:33;6.47;;;5.63;;
22634;SDS011;11484;50.858;4.384;2023-09-08T01:16:58;7.68;;;6.03;;
22634;SDS011;11484;50.858;4.384;2023-09-08T01:19:24;8.70;;;5.78;;
22634;SDS011;11484;50.858;4.384;2023-09-08T01:27:21;8.82;;;6.32;;
22634;SDS011;11484;50.858;4.384;2023-09-08T01:29:50;7.57;;;6.50;;
22634;SDS011;11484;50.858;4.384;2023-09-08T01:32:16;7.97;;;6.43;;
22634;SDS011;11484;50.858;4.384;2023-09-08T01:34:43;8.32;;;6.80;;
22634;SDS011;11484;50.858;4.384;2023-09-08T01:37:08;7.05;;;6.15;;
22634;SDS011;11484;50.858;4.384;2023-09-08T01:39:34;9.20;;;6.70;;
22634;SDS011;11484;50.858;4.384;2023-09-08T01:42:00;8.73;;;6.55;;
22634;SDS011;11484;50.858;4.384;2023-09-08T01:44:26;7.88;;;6.05;;
22634;SDS011;11484;50.858;4.384;2023-09-08T01:46:52;7.60;;;6.70;;
22634;SDS011;11484;50.858;4.384;2023-09-08T01:49:21;10.10;;;7.00;;
22634;SDS011;11484;50.858;4.384;2023-09-08T01:51:48;8.93;;;6.55;;
22634;SDS011;11484;50.858;4.384;2023-09-08T01:54:13;7.90;;;6.65;;
22634;SDS011;11484;50.858;4.384;2023-09-08T01:56:39;8.25;;;7.03;;
22634;SDS011;11484;50.858;4.384;2023-09-08T01:59:05;7.05;;;6.03;;
22634;SDS011;11484;50.858;4.384;2023-09-08T02:01:30;8.20;;;6.18;;
22634;SDS011;11484;50.858;4.384;2023-09-08T02:03:56;10.60;;;7.07;;
22634;SDS011;11484;50.858;4.384;2023-09-08T02:06:21;7.72;;;6.25;;
22634;SDS011;11484;50.858;4.384;2023-09-08T02:08:47;8.65;;;7.13;;
22634;SDS011;11484;50.858;4.384;2023-09-08T02:11:13;7.45;;;6.25;;
22634;SDS011;11484;50.858;4.384;2023-09-08T02:13:39;7.10;;;6.22;;
22634;SDS011;11484;50.858;4.384;2023-09-08T02:16:07;7.43;;;6.45;;
22634;SDS011;11484;50.858;4.384;2023-09-08T02:21:03;7.32;;;5.68;;
22634;SDS011;11484;50.858;4.384;2023-09-08T02:23:29;7.35;;;6.40;;
22634;SDS011;11484;50.858;4.384;2023-09-08T02:25:55;8.70;;;6.25;;
22634;SDS011;11484;50.858;4.384;2023-09-08T02:28:20;6.63;;;5.63;;
22634;SDS011;11484;50.858;4.384;2023-09-08T02:30:46;7.85;;;6.63;;
22634;SDS011;11484;50.858;4.384;2023-09-08T02:33:12;10.50;;;6.68;;
22634;SDS011;11484;50.858;4.384;2023-09-08T02:35:37;8.32;;;6.55;;
22634;SDS011;11484;50.858;4.384;2023-09-08T02:38:03;7.22;;;5.90;;
22634;SDS011;11484;50.858;4.384;2023-09-08T02:40:29;8.18;;;6.78;;
22634;SDS011;11484;50.858;4.384;2023-09-08T02:42:55;9.43;;;6.80;;
22634;SDS011;11484;50.858;4.384;2023-09-08T02:45:20;10.45;;;7.13;;
22634;SDS011;11484;50.858;4.384;2023-09-08T02:47:46;7.85;;;7.05;;
22634;SDS011;11484;50.858;4.384;2023-09-08T02:50:12;9.70;;;6.70;;
22634;SDS011;11484;50.858;4.384;2023-09-08T02:52:37;7.18;;;6.43;;
22634;SDS011;11484;50.858;4.384;2023-09-08T02:55:03;8.73;;;6.57;;
22634;SDS011;11484;50.858;4.384;2023-09-08T02:57:29;8.43;;;6.70;;
22634;SDS011;11484;50.858;4.384;2023-09-08T02:59:54;7.63;;;6.50;;
22634;SDS011;11484;50.858;4.384;2023-09-08T03:02:22;8.95;;;7.00;;
22634;SDS011;11484;50.858;4.384;2023-09-08T03:04:50;9.00;;;6.85;;
22634;SDS011;11484;50.858;4.384;2023-09-08T03:07:15;9.23;;;7.28;;
22634;SDS011;11484;50.858;4.384;2023-09-08T03:09:41;9.27;;;7.07;;
22634;SDS011;11484;50.858;4.384;2023-09-08T03:12:07;8.25;;;6.80;;
22634;SDS011;11484;50.858;4.384;2023-09-08T03:14:32;8.50;;;6.88;;
22634;SDS011;11484;50.858;4.384;2023-09-08T03:16:58;6.82;;;5.95;;
22634;SDS011;11484;50.858;4.384;2023-09-08T03:19:23;6.93;;;6.22;;
22634;SDS011;11484;50.858;4.384;2023-09-08T03:21:49;8.75;;;6.55;;
22634;SDS011;11484;50.858;4.384;2023-09-08T03:24:15;7.53;;;6.28;;
22634;SDS011;11484;50.858;4.384;2023-09-08T03:26:40;7.57;;;6.88;;
22634;SDS011;11484;50.858;4.384;2023-09-08T03:29:06;8.02;;;6.28;;
22634;SDS011;11484;50.858;4.384;2023-09-08T03:31:32;7.63;;;6.47;;
22634;SDS011;11484;50.858;4.384;2023-09-08T03:33:57;8.43;;;6.20;;
22634;SDS011;11484;50.858;4.384;2023-09-08T03:36:23;7.78;;;6.65;;
22634;SDS011;11484;50.858;4.384;2023-09-08T03:38:49;8.57;;;6.65;;
22634;SDS011;11484;50.858;4.384;2023-09-08T03:41:15;9.52;;;6.65;;
22634;SDS011;11484;50.858;4.384;2023-09-08T03:43:41;7.70;;;6.75;;
22634;SDS011;11484;50.858;4.384;2023-09-08T03:46:06;8.57;;;6.53;;
22634;SDS011;11484;50.858;4.384;2023-09-08T03:48:32;7.90;;;6.45;;
22634;SDS011;11484;50.858;4.384;2023-09-08T03:50:58;11.00;;;6.57;;
22634;SDS011;11484;50.858;4.384;2023-09-08T03:53:24;7.57;;;6.78;;
22634;SDS011;11484;50.858;4.384;2023-09-08T03:55:49;9.60;;;6.75;;
22634;SDS011;11484;50.858;4.384;2023-09-08T03:58:15;10.48;;;7.20;;
22634;SDS011;11484;50.858;4.384;2023-09-08T04:00:41;11.45;;;7.60;;
22634;SDS011;11484;50.858;4.384;2023-09-08T04:03:08;8.15;;;7.28;;
22634;SDS011;11484;50.858;4.384;2023-09-08T04:05:34;8.32;;;6.97;;
22634;SDS011;11484;50.858;4.384;2023-09-08T04:07:59;10.63;;;7.82;;
22634;SDS011;11484;50.858;4.384;2023-09-08T04:10:26;9.55;;;7.70;;
22634;SDS011;11484;50.858;4.384;2023-09-08T04:12:52;9.70;;;7.38;;
22634;SDS011;11484;50.858;4.384;2023-09-08T04:15:17;9.38;;;7.28;;
22634;SDS011;11484;50.858;4.384;2023-09-08T04:17:43;11.43;;;8.32;;
22634;SDS011;11484;50.858;4.384;2023-09-08T04:20:10;10.55;;;7.75;;
22634;SDS011;11484;50.858;4.384;2023-09-08T04:22:36;12.70;;;8.60;;
22634;SDS011;11484;50.858;4.384;2023-09-08T04:25:02;13.50;;;7.97;;
22634;SDS011;11484;50.858;4.384;2023-09-08T04:27:28;13.93;;;8.07;;
22634;SDS011;11484;50.858;4.384;2023-09-08T04:29:53;11.18;;;7.95;;
22634;SDS011;11484;50.858;4.384;2023-09-08T04:32:19;13.43;;;8.10;;
22634;SDS011;11484;50.858;4.384;2023-09-08T04:34:45;10.90;;;7.63;;
22634;SDS011;11484;50.858;4.384;2023-09-08T04:37:10;9.88;;;7.43;;
22634;SDS011;11484;50.858;4.384;2023-09-08T04:39:36;9.27;;;7.07;;
22634;SDS011;11484;50.858;4.384;2023-09-08T04:42:02;11.60;;;7.68;;
22634;SDS011;11484;50.858;4.384;2023-09-08T04:44:28;11.05;;;7.97;;
22634;SDS011;11484;50.858;4.384;2023-09-08T04:46:54;13.25;;;8.13;;
22634;SDS011;11484;50.858;4.384;2023-09-08T04:49:19;13.30;;;8.18;;
22634;SDS011;11484;50.858;4.384;2023-09-08T04:51:45;11.15;;;7.82;;
22634;SDS011;11484;50.858;4.384;2023-09-08T04:54:11;12.10;;;8.65;;
22634;SDS011;11484;50.858;4.384;2023-09-08T04:56:38;14.00;;;7.95;;
22634;SDS011;11484;50.858;4.384;2023-09-08T04:59:04;10.35;;;8.27;;
22634;SDS011;11484;50.858;4.384;2023-09-08T05:01:30;12.10;;;8.52;;
22634;SDS011;11484;50.858;4.384;2023-09-08T05:03:57;9.07;;;8.10;;
22634;SDS011;11484;50.858;4.384;2023-09-08T05:06:24;11.48;;;8.52;;
22634;SDS011;11484;50.858;4.384;2023-09-08T05:08:50;12.70;;;8.27;;
22634;SDS011;11484;50.858;4.384;2023-09-08T05:11:16;14.85;;;8.90;;
22634;SDS011;11484;50.858;4.384;2023-09-08T05:13:44;13.60;;;8.93;;
22634;SDS011;11484;50.858;4.384;2023-09-08T05:16:09;12.75;;;9.23;;
22634;SDS011;11484;50.858;4.384;2023-09-08T05:18:38;13.52;;;8.90;;
22634;SDS011;11484;50.858;4.384;2023-09-08T05:21:04;12.60;;;8.70;;
22634;SDS011;11484;50.858;4.384;2023-09-08T05:23:30;18.40;;;8.90;;
22634;SDS011;11484;50.858;4.384;2023-09-08T05:25:56;13.95;;;8.80;;
22634;SDS011;11484;50.858;4.384;2023-09-08T05:28:22;19.10;;;10.85;;
22634;SDS011;11484;50.858;4.384;2023-09-08T05:30:50;16.27;;;10.00;;
22634;SDS011;11484;50.858;4.384;2023-09-08T05:33:16;15.95;;;10.13;;
22634;SDS011;11484;50.858;4.384;2023-09-08T05:35:42;13.40;;;9.23;;
22634;SDS011;11484;50.858;4.384;2023-09-08T05:38:08;15.18;;;9.43;;
22634;SDS011;11484;50.858;4.384;2023-09-08T05:40:34;12.57;;;8.85;;
22634;SDS011;11484;50.858;4.384;2023-09-08T05:43:00;14.35;;;8.57;;
22634;SDS011;11484;50.858;4.384;2023-09-08T05:45:25;11.40;;;8.38;;
22634;SDS011;11484;50.858;4.384;2023-09-08T05:47:52;11.90;;;8.15;;
22634;SDS011;11484;50.858;4.384;2023-09-08T05:50:17;10.20;;;8.40;;
22634;SDS011;11484;50.858;4.384;2023-09-08T05:52:44;10.50;;;7.75;;
22634;SDS011;11484;50.858;4.384;2023-09-08T05:55:10;12.68;;;8.77;;
22634;SDS011;11484;50.858;4.384;2023-09-08T05:57:35;10.18;;;8.30;;
22634;SDS011;11484;50.858;4.384;2023-09-08T06:00:05;11.50;;;8.18;;
22634;SDS011;11484;50.858;4.384;2023-09-08T06:02:31;10.57;;;7.63;;
22634;SDS011;11484;50.858;4.384;2023-09-08T06:04:57;13.52;;;8.27;;
22634;SDS011;11484;50.858;4.384;2023-09-08T06:07:23;12.52;;;8.48;;
22634;SDS011;11484;50.858;4.384;2023-09-08T06:09:49;10.93;;;8.10;;
22634;SDS011;11484;50.858;4.384;2023-09-08T06:12:14;10.00;;;8.25;;
22634;SDS011;11484;50.858;4.384;2023-09-08T06:14:40;13.60;;;8.20;;
22634;SDS011;11484;50.858;4.384;2023-09-08T06:17:06;12.57;;;8.10;;
22634;SDS011;11484;50.858;4.384;2023-09-08T06:19:31;12.77;;;8.23;;
22634;SDS011;11484;50.858;4.384;2023-09-08T06:21:57;10.38;;;7.53;;
22634;SDS011;11484;50.858;4.384;2023-09-08T06:24:23;10.35;;;7.97;;
22634;SDS011;11484;50.858;4.384;2023-09-08T06:26:49;11.75;;;8.00;;
22634;SDS011;11484;50.858;4.384;2023-09-08T06:29:15;13.90;;;8.38;;
22634;SDS011;11484;50.858;4.384;2023-09-08T06:31:41;10.32;;;7.25;;
22634;SDS011;11484;50.858;4.384;2023-09-08T06:34:06;13.50;;;7.68;;
22634;SDS011;11484;50.858;4.384;2023-09-08T06:36:32;11.43;;;8.57;;
22634;SDS011;11484;50.858;4.384;2023-09-08T06:38:58;10.15;;;7.55;;
22634;SDS011;11484;50.858;4.384;2023-09-08T06:41:24;11.05;;;7.35;;
22634;SDS011;11484;50.858;4.384;2023-09-08T06:43:51;11.35;;;7.97;;
22634;SDS011;11484;50.858;4.384;2023-09-08T06:46:17;14.02;;;8.18;;
22634;SDS011;11484;50.858;4.384;2023-09-08T06:48:43;9.90;;;7.45;;
22634;SDS011;11484;50.858;4.384;2023-09-08T06:51:09;13.18;;;7.53;;
22634;SDS011;11484;50.858;4.384;2023-09-08T06:53:35;8.40;;;6.53;;
22634;SDS011;11484;50.858;4.384;2023-09-08T06:56:01;8.75;;;7.30;;
22634;SDS011;11484;50.858;4.384;2023-09-08T06:58:27;10.70;;;7.30;;
22634;SDS011;11484;50.858;4.384;2023-09-08T07:00:53;10.70;;;6.68;;
22634;SDS011;11484;50.858;4.384;2023-09-08T07:03:19;8.60;;;6.53;;
22634;SDS011;11484;50.858;4.384;2023-09-08T07:05:47;11.45;;;6.80;;
22634;SDS011;11484;50.858;4.384;2023-09-08T07:08:13;6.88;;;5.78;;
22634;SDS011;11484;50.858;4.384;2023-09-08T07:10:39;12.68;;;6.38;;
22634;SDS011;11484;50.858;4.384;2023-09-08T07:13:06;8.18;;;6.25;;
22634;SDS011;11484;50.858;4.384;2023-09-08T07:15:31;10.57;;;5.82;;
22634;SDS011;11484;50.858;4.384;2023-09-08T07:17:57;8.60;;;5.47;;
22634;SDS011;11484;50.858;4.384;2023-09-08T07:20:23;12.20;;;6.28;;
22634;SDS011;11484;50.858;4.384;2023-09-08T07:22:48;6.70;;;5.45;;
22634;SDS011;11484;50.858;4.384;2023-09-08T07:25:14;7.30;;;5.63;;
22634;SDS011;11484;50.858;4.384;2023-09-08T07:27:40;10.43;;;6.05;;
22634;SDS011;11484;50.858;4.384;2023-09-08T07:30:06;8.98;;;6.35;;
22634;SDS011;11484;50.858;4.384;2023-09-08T07:32:32;11.32;;;6.30;;
22634;SDS011;11484;50.858;4.384;2023-09-08T07:34:57;10.80;;;6.53;;
22634;SDS011;11484;50.858;4.384;2023-09-08T07:37:23;9.57;;;5.72;;
22634;SDS011;11484;50.858;4.384;2023-09-08T07:39:49;7.95;;;5.78;;
22634;SDS011;11484;50.858;4.384;2023-09-08T07:42:16;9.38;;;6.90;;
22634;SDS011;11484;50.858;4.384;2023-09-08T07:44:44;12.35;;;6.03;;
22634;SDS011;11484;50.858;4.384;2023-09-08T07:47:10;8.32;;;5.85;;
22634;SDS011;11484;50.858;4.384;2023-09-08T07:49:36;11.05;;;6.07;;
22634;SDS011;11484;50.858;4.384;2023-09-08T07:52:02;8.10;;;6.43;;
22634;SDS011;11484;50.858;4.384;2023-09-08T07:54:30;8.35;;;5.95;;
22634;SDS011;11484;50.858;4.384;2023-09-08T07:56:56;7.75;;;6.28;;
22634;SDS011;11484;50.858;4.384;2023-09-08T07:59:21;9.65;;;5.95;;
22634;SDS011;11484;50.858;4.384;2023-09-08T08:01:47;11.93;;;8.35;;
22634;SDS011;11484;50.858;4.384;2023-09-08T08:04:13;10.80;;;8.75;;
22634;SDS011;11484;50.858;4.384;2023-09-08T08:06:39;8.50;;;5.82;;
22634;SDS011;11484;50.858;4.384;2023-09-08T08:09:04;7.45;;;6.07;;
22634;SDS011;11484;50.858;4.384;2023-09-08T08:11:30;9.05;;;6.18;;
22634;SDS011;11484;50.858;4.384;2023-09-08T08:13:56;8.88;;;6.68;;
22634;SDS011;11484;50.858;4.384;2023-09-08T08:16:22;9.65;;;6.72;;
22634;SDS011;11484;50.858;4.384;2023-09-08T08:18:48;10.38;;;6.43;;
22634;SDS011;11484;50.858;4.384;2023-09-08T08:21:14;11.30;;;6.40;;
22634;SDS011;11484;50.858;4.384;2023-09-08T08:23:40;9.13;;;6.40;;
22634;SDS011;11484;50.858;4.384;2023-09-08T08:26:06;7.88;;;5.53;;
22634;SDS011;11484;50.858;4.384;2023-09-08T08:28:32;12.70;;;7.40;;
22634;SDS011;11484;50.858;4.384;2023-09-08T08:30:57;10.70;;;6.95;;
22634;SDS011;11484;50.858;4.384;2023-09-08T08:33:23;9.38;;;7.35;;
22634;SDS011;11484;50.858;4.384;2023-09-08T08:35:52;15.73;;;7.53;;
22634;SDS011;11484;50.858;4.384;2023-09-08T08:38:23;10.68;;;7.30;;
22634;SDS011;11484;50.858;4.384;2023-09-08T08:40:49;9.13;;;6.35;;
22634;SDS011;11484;50.858;4.384;2023-09-08T08:43:14;13.05;;;7.22;;
22634;SDS011;11484;50.858;4.384;2023-09-08T08:45:41;10.23;;;6.78;;
22634;SDS011;11484;50.858;4.384;2023-09-08T08:48:08;10.43;;;7.10;;
22634;SDS011;11484;50.858;4.384;2023-09-08T08:50:35;10.68;;;7.53;;
22634;SDS011;11484;50.858;4.384;2023-09-08T08:53:04;11.50;;;7.20;;
22634;SDS011;11484;50.858;4.384;2023-09-08T08:55:30;15.40;;;6.95;;
22634;SDS011;11484;50.858;4.384;2023-09-08T08:58:01;11.95;;;6.60;;
22634;SDS011;11484;50.858;4.384;2023-09-08T09:00:38;9.05;;;6.07;;
22634;SDS011;11484;50.858;4.384;2023-09-08T09:03:04;8.00;;;6.00;;
22634;SDS011;11484;50.858;4.384;2023-09-08T09:05:31;11.13;;;6.90;;
22634;SDS011;11484;50.858;4.384;2023-09-08T09:07:58;9.27;;;6.22;;
22634;SDS011;11484;50.858;4.384;2023-09-08T09:10:28;11.57;;;6.50;;
22634;SDS011;11484;50.858;4.384;2023-09-08T09:12:55;9.20;;;6.00;;
22634;SDS011;11484;50.858;4.384;2023-09-08T09:15:30;8.88;;;6.10;;
22634;SDS011;11484;50.858;4.384;2023-09-08T09:18:02;9.20;;;6.38;;
22634;SDS011;11484;50.858;4.384;2023-09-08T09:20:29;10.30;;;6.68;;
22634;SDS011;11484;50.858;4.384;2023-09-08T09:22:55;11.27;;;6.97;;
22634;SDS011;11484;50.858;4.384;2023-09-08T09:25:25;13.48;;;6.40;;
22634;SDS011;11484;50.858;4.384;2023-09-08T09:27:56;10.15;;;7.05;;
22634;SDS011;11484;50.858;4.384;2023-09-08T09:30:24;9.57;;;6.10;;
22634;SDS011;11484;50.858;4.384;2023-09-08T09:35:45;9.55;;;6.00;;
22634;SDS011;11484;50.858;4.384;2023-09-08T09:38:13;18.75;;;7.22;;
22634;SDS011;11484;50.858;4.384;2023-09-08T09:40:39;11.77;;;6.18;;
22634;SDS011;11484;50.858;4.384;2023-09-08T09:43:05;10.40;;;6.00;;
22634;SDS011;11484;50.858;4.384;2023-09-08T09:45:33;11.77;;;5.82;;
22634;SDS011;11484;50.858;4.384;2023-09-08T09:47:59;9.68;;;6.50;;
22634;SDS011;11484;50.858;4.384;2023-09-08T09:50:33;11.95;;;6.40;;
22634;SDS011;11484;50.858;4.384;2023-09-08T09:53:09;8.63;;;6.55;;
22634;SDS011;11484;50.858;4.384;2023-09-08T09:55:36;7.50;;;5.80;;
22634;SDS011;11484;50.858;4.384;2023-09-08T09:58:04;7.78;;;5.70;;
22634;SDS011;11484;50.858;4.384;2023-09-08T10:00:30;5.82;;;5.18;;
22634;SDS011;11484;50.858;4.384;2023-09-08T10:02:58;11.13;;;6.10;;
22634;SDS011;11484;50.858;4.384;2023-09-08T10:05:24;9.88;;;6.28;;
22634;SDS011;11484;50.858;4.384;2023-09-08T10:07:50;14.90;;;6.50;;
22634;SDS011;11484;50.858;4.384;2023-09-08T10:10:17;10.55;;;6.30;;
22634;SDS011;11484;50.858;4.384;2023-09-08T10:12:44;9.43;;;5.45;;
22634;SDS011;11484;50.858;4.384;2023-09-08T10:15:11;6.85;;;5.72;;
22634;SDS011;11484;50.858;4.384;2023-09-08T10:17:39;6.80;;;5.70;;
22634;SDS011;11484;50.858;4.384;2023-09-08T10:20:08;11.57;;;5.80;;
22634;SDS011;11484;50.858;4.384;2023-09-08T10:22:40;7.47;;;5.32;;
22634;SDS011;11484;50.858;4.384;2023-09-08T10:25:09;8.52;;;4.90;;
22634;SDS011;11484;50.858;4.384;2023-09-08T10:27:39;9.93;;;5.72;;
22634;SDS011;11484;50.858;4.384;2023-09-08T10:30:07;8.25;;;5.13;;
22634;SDS011;11484;50.858;4.384;2023-09-08T10:32:35;8.55;;;5.38;;
22634;SDS011;11484;50.858;4.384;2023-09-08T10:35:05;10.70;;;6.15;;
22634;SDS011;11484;50.858;4.384;2023-09-08T10:37:31;7.97;;;5.43;;
22634;SDS011;11484;50.858;4.384;2023-09-08T10:42:46;7.82;;;5.70;;
22634;SDS011;11484;50.858;4.384;2023-09-08T10:45:17;5.68;;;4.07;;
22634;SDS011;11484;50.858;4.384;2023-09-08T10:50:17;6.45;;;4.05;;
22634;SDS011;11484;50.858;4.384;2023-09-08T10:52:44;5.88;;;3.92;;
22634;SDS011;11484;50.858;4.384;2023-09-08T10:55:24;9.27;;;4.57;;
22634;SDS011;11484;50.858;4.384;2023-09-08T10:58:03;6.07;;;4.97;;
22634;SDS011;11484;50.858;4.384;2023-09-08T11:00:42;6.32;;;4.28;;
22634;SDS011;11484;50.858;4.384;2023-09-08T11:03:09;6.93;;;4.63;;
22634;SDS011;11484;50.858;4.384;2023-09-08T11:05:36;6.60;;;4.40;;
22634;SDS011;11484;50.858;4.384;2023-09-08T11:08:02;5.88;;;4.47;;
22634;SDS011;11484;50.858;4.384;2023-09-08T11:10:29;6.28;;;4.47;;
22634;SDS011;11484;50.858;4.384;2023-09-08T11:12:56;6.63;;;5.00;;
22634;SDS011;11484;50.858;4.384;2023-09-08T11:15:22;6.80;;;4.60;;
22634;SDS011;11484;50.858;4.384;2023-09-08T11:17:49;9.25;;;5.30;;
22634;SDS011;11484;50.858;4.384;2023-09-08T11:20:25;6.60;;;4.78;;
22634;SDS011;11484;50.858;4.384;2023-09-08T11:22:52;9.57;;;4.60;;
22634;SDS011;11484;50.858;4.384;2023-09-08T11:25:18;7.55;;;3.95;;
22634;SDS011;11484;50.858;4.384;2023-09-08T11:27:45;7.65;;;4.35;;
22634;SDS011;11484;50.858;4.384;2023-09-08T11:30:12;7.10;;;4.25;;
22634;SDS011;11484;50.858;4.384;2023-09-08T11:32:38;5.88;;;4.10;;
22634;SDS011;11484;50.858;4.384;2023-09-08T11:35:08;6.70;;;4.40;;
22634;SDS011;11484;50.858;4.384;2023-09-08T11:37:38;6.28;;;4.05;;
22634;SDS011;11484;50.858;4.384;2023-09-08T11:40:07;6.90;;;3.88;;
22634;SDS011;11484;50.858;4.384;2023-09-08T11:42:40;12.65;;;5.28;;
22634;SDS011;11484;50.858;4.384;2023-09-08T11:45:13;6.60;;;4.38;;
22634;SDS011;11484;50.858;4.384;2023-09-08T11:47:43;10.32;;;3.88;;
22634;SDS011;11484;50.858;4.384;2023-09-08T11:50:12;8.15;;;4.03;;
22634;SDS011;11484;50.858;4.384;2023-09-08T11:52:50;7.40;;;4.13;;
22634;SDS011;11484;50.858;4.384;2023-09-08T11:55:18;7.88;;;4.32;;
22634;SDS011;11484;50.858;4.384;2023-09-08T11:57:53;4.97;;;3.75;;
22634;SDS011;11484;50.858;4.384;2023-09-08T12:00:22;5.80;;;4.30;;
22634;SDS011;11484;50.858;4.384;2023-09-08T12:02:48;6.45;;;4.47;;
22634;SDS011;11484;50.858;4.384;2023-09-08T12:08:08;7.20;;;4.10;;
22634;SDS011;11484;50.858;4.384;2023-09-08T12:10:38;6.75;;;4.40;;
22634;SDS011;11484;50.858;4.384;2023-09-08T12:13:07;10.13;;;4.57;;
22634;SDS011;11484;50.858;4.384;2023-09-08T12:18:01;6.57;;;3.88;;
22634;SDS011;11484;50.858;4.384;2023-09-08T12:20:28;8.13;;;4.28;;
22634;SDS011;11484;50.858;4.384;2023-09-08T12:22:54;6.10;;;3.92;;
22634;SDS011;11484;50.858;4.384;2023-09-08T12:25:22;6.85;;;4.20;;
22634;SDS011;11484;50.858;4.384;2023-09-08T12:27:49;6.82;;;4.32;;
22634;SDS011;11484;50.858;4.384;2023-09-08T12:30:19;7.78;;;4.63;;
22634;SDS011;11484;50.858;4.384;2023-09-08T12:32:47;5.93;;;3.72;;
22634;SDS011;11484;50.858;4.384;2023-09-08T12:35:19;6.22;;;3.90;;
22634;SDS011;11484;50.858;4.384;2023-09-08T12:37:52;7.63;;;4.25;;
22634;SDS011;11484;50.858;4.384;2023-09-08T12:40:28;7.63;;;4.13;;
22634;SDS011;11484;50.858;4.384;2023-09-08T12:43:00;12.63;;;4.32;;
22634;SDS011;11484;50.858;4.384;2023-09-08T12:45:27;6.78;;;4.30;;
22634;SDS011;11484;50.858;4.384;2023-09-08T12:47:53;5.93;;;3.58;;
22634;SDS011;11484;50.858;4.384;2023-09-08T12:50:23;8.35;;;3.78;;
22634;SDS011;11484;50.858;4.384;2023-09-08T12:52:50;4.95;;;3.58;;
22634;SDS011;11484;50.858;4.384;2023-09-08T12:55:15;6.53;;;3.53;;
22634;SDS011;11484;50.858;4.384;2023-09-08T12:57:41;8.15;;;4.00;;
22634;SDS011;11484;50.858;4.384;2023-09-08T13:00:07;6.35;;;4.03;;
22634;SDS011;11484;50.858;4.384;2023-09-08T13:02:33;6.53;;;3.88;;
22634;SDS011;11484;50.858;4.384;2023-09-08T13:04:59;6.47;;;4.05;;
22634;SDS011;11484;50.858;4.384;2023-09-08T13:07:27;4.25;;;3.85;;
22634;SDS011;11484;50.858;4.384;2023-09-08T13:09:53;6.57;;;4.30;;
22634;SDS011;11484;50.858;4.384;2023-09-08T13:12:19;8.48;;;4.38;;
22634;SDS011;11484;50.858;4.384;2023-09-08T13:14:45;7.72;;;3.67;;
22634;SDS011;11484;50.858;4.384;2023-09-08T13:17:11;7.05;;;3.95;;
22634;SDS011;11484;50.858;4.384;2023-09-08T13:19:36;5.63;;;3.97;;
22634;SDS011;11484;50.858;4.384;2023-09-08T13:22:05;7.43;;;3.80;;
22634;SDS011;11484;50.858;4.384;2023-09-08T13:24:32;6.55;;;4.03;;
22634;SDS011;11484;50.858;4.384;2023-09-08T13:26:58;8.95;;;4.88;;
22634;SDS011;11484;50.858;4.384;2023-09-08T13:29:27;9.88;;;4.55;;
22634;SDS011;11484;50.858;4.384;2023-09-08T13:31:53;8.27;;;4.38;;
22634;SDS011;11484;50.858;4.384;2023-09-08T13:34:20;8.10;;;4.68;;
22634;SDS011;11484;50.858;4.384;2023-09-08T13:36:46;10.60;;;4.07;;
22634;SDS011;11484;50.858;4.384;2023-09-08T13:39:13;12.82;;;4.72;;
22634;SDS011;11484;50.858;4.384;2023-09-08T13:44:24;6.22;;;3.78;;
22634;SDS011;11484;50.858;4.384;2023-09-08T13:46:51;6.97;;;4.22;;
22634;SDS011;11484;50.858;4.384;2023-09-08T13:49:19;13.45;;;4.45;;
22634;SDS011;11484;50.858;4.384;2023-09-08T13:51:46;8.82;;;4.35;;
22634;SDS011;11484;50.858;4.384;2023-09-08T13:54:12;8.82;;;4.15;;
22634;SDS011;11484;50.858;4.384;2023-09-08T13:56:38;11.52;;;4.38;;
22634;SDS011;11484;50.858;4.384;2023-09-08T13:59:05;14.73;;;5.47;;
22634;SDS011;11484;50.858;4.384;2023-09-08T14:01:37;9.40;;;3.92;;
22634;SDS011;11484;50.858;4.384;2023-09-08T14:04:07;9.65;;;4.25;;
22634;SDS011;11484;50.858;4.384;2023-09-08T14:09:29;11.38;;;4.38;;
22634;SDS011;11484;50.858;4.384;2023-09-08T14:12:05;8.27;;;4.25;;
22634;SDS011;11484;50.858;4.384;2023-09-08T14:14:44;9.38;;;3.90;;
22634;SDS011;11484;50.858;4.384;2023-09-08T14:17:10;9.13;;;3.97;;
22634;SDS011;11484;50.858;4.384;2023-09-08T14:19:39;7.63;;;3.97;;
22634;SDS011;11484;50.858;4.384;2023-09-08T14:22:08;11.13;;;4.32;;
22634;SDS011;11484;50.858;4.384;2023-09-08T14:24:36;11.30;;;4.65;;
22634;SDS011;11484;50.858;4.384;2023-09-08T14:27:02;8.15;;;4.25;;
22634;SDS011;11484;50.858;4.384;2023-09-08T14:29:30;10.07;;;4.30;;
22634;SDS011;11484;50.858;4.384;2023-09-08T14:31:58;10.35;;;5.10;;
22634;SDS011;11484;50.858;4.384;2023-09-08T14:34:24;10.73;;;4.40;;
22634;SDS011;11484;50.858;4.384;2023-09-08T14:36:49;15.85;;;5.50;;
22634;SDS011;11484;50.858;4.384;2023-09-08T14:39:15;13.73;;;4.78;;
22634;SDS011;11484;50.858;4.384;2023-09-08T14:41:42;12.00;;;5.32;;
22634;SDS011;11484;50.858;4.384;2023-09-08T14:44:09;9.35;;;4.88;;
22634;SDS011;11484;50.858;4.384;2023-09-08T14:46:37;9.23;;;4.18;;
22634;SDS011;11484;50.858;4.384;2023-09-08T14:49:04;15.77;;;5.22;;
22634;SDS011;11484;50.858;4.384;2023-09-08T14:51:30;8.85;;;4.65;;
22634;SDS011;11484;50.858;4.384;2023-09-08T14:53:58;14.98;;;5.70;;
22634;SDS011;11484;50.858;4.384;2023-09-08T14:56:25;9.82;;;4.97;;
22634;SDS011;11484;50.858;4.384;2023-09-08T14:58:51;14.00;;;4.63;;
22634;SDS011;11484;50.858;4.384;2023-09-08T15:01:23;11.15;;;4.78;;
22634;SDS011;11484;50.858;4.384;2023-09-08T15:03:49;13.23;;;5.30;;
22634;SDS011;11484;50.858;4.384;2023-09-08T15:06:15;12.00;;;4.80;;
22634;SDS011;11484;50.858;4.384;2023-09-08T15:08:41;12.73;;;5.38;;